sensor_id;sensor_type;location;lat;lon;timestamp;P1;durP1;ratioP1;P2;durP2;ratioP2
17866;SDS011;9059;49.934;8.650;2023-06-22T00:09:34;10.02;;;4.60;;
17866;SDS011;9059;49.934;8.650;2023-06-22T00:19:38;7.50;;;4.47;;
17866;SDS011;9059;49.934;8.650;2023-06-22T00:29:41;9.82;;;5.03;;
17866;SDS011;9059;49.934;8.650;2023-06-22T00:39:46;6.90;;;4.75;;
17866;SDS011;9059;49.934;8.650;2023-06-22T00:49:49;9.95;;;5.20;;
17866;SDS011;9059;49.934;8.650;2023-06-22T00:59:54;7.85;;;4.70;;
17866;SDS011;9059;49.934;8.650;2023-06-22T01:09:59;9.98;;;4.88;;
17866;SDS011;9059;49.934;8.650;2023-06-22T01:20:09;8.80;;;5.32;;
17866;SDS011;9059;49.934;8.650;2023-06-22T01:30:15;15.18;;;5.20;;
17866;SDS011;9059;49.934;8.650;2023-06-22T01:40:18;10.80;;;5.57;;
17866;SDS011;9059;49.934;8.650;2023-06-22T01:50:23;9.80;;;5.18;;
17866;SDS011;9059;49.934;8.650;2023-06-22T02:00:26;12.70;;;5.72;;
17866;SDS011;9059;49.934;8.650;2023-06-22T02:10:33;8.27;;;5.60;;
17866;SDS011;9059;49.934;8.650;2023-06-22T02:20:37;10.15;;;5.50;;
17866;SDS011;9059;49.934;8.650;2023-06-22T02:30:41;9.32;;;5.32;;
17866;SDS011;9059;49.934;8.650;2023-06-22T02:40:44;11.68;;;6.00;;
17866;SDS011;9059;49.934;8.650;2023-06-22T02:50:48;8.88;;;5.20;;
17866;SDS011;9059;49.934;8.650;2023-06-22T03:00:51;9.30;;;5.57;;
17866;SDS011;9059;49.934;8.650;2023-06-22T03:10:56;7.80;;;4.93;;
17866;SDS011;9059;49.934;8.650;2023-06-22T03:20:59;8.52;;;5.25;;
17866;SDS011;9059;49.934;8.650;2023-06-22T03:31:05;8.35;;;5.60;;
17866;SDS011;9059;49.934;8.650;2023-06-22T03:41:10;9.95;;;5.38;;
17866;SDS011;9059;49.934;8.650;2023-06-22T03:51:14;8.82;;;5.43;;
17866;SDS011;9059;49.934;8.650;2023-06-22T04:01:17;8.93;;;5.53;;
17866;SDS011;9059;49.934;8.650;2023-06-22T04:11:22;11.98;;;5.93;;
17866;SDS011;9059;49.934;8.650;2023-06-22T04:21:25;9.67;;;6.23;;
17866;SDS011;9059;49.934;8.650;2023-06-22T04:31:29;10.10;;;5.85;;
17866;SDS011;9059;49.934;8.650;2023-06-22T04:41:33;10.15;;;5.97;;
17866;SDS011;9059;49.934;8.650;2023-06-22T04:51:44;9.00;;;6.05;;
17866;SDS011;9059;49.934;8.650;2023-06-22T05:01:47;8.60;;;5.78;;
17866;SDS011;9059;49.934;8.650;2023-06-22T05:11:51;9.75;;;5.85;;
17866;SDS011;9059;49.934;8.650;2023-06-22T05:21:54;8.23;;;5.18;;
17866;SDS011;9059;49.934;8.650;2023-06-22T05:31:58;12.52;;;5.75;;
17866;SDS011;9059;49.934;8.650;2023-06-22T05:42:01;12.85;;;6.28;;
17866;SDS011;9059;49.934;8.650;2023-06-22T05:52:06;9.68;;;5.85;;
17866;SDS011;9059;49.934;8.650;2023-06-22T06:02:09;8.43;;;5.72;;
17866;SDS011;9059;49.934;8.650;2023-06-22T06:12:14;8.68;;;5.60;;
17866;SDS011;9059;49.934;8.650;2023-06-22T06:22:17;10.73;;;5.95;;
17866;SDS011;9059;49.934;8.650;2023-06-22T06:32:21;9.73;;;5.70;;
17866;SDS011;9059;49.934;8.650;2023-06-22T06:42:24;8.95;;;6.05;;
17866;SDS011;9059;49.934;8.650;2023-06-22T06:52:28;9.35;;;6.07;;
17866;SDS011;9059;49.934;8.650;2023-06-22T07:02:31;11.30;;;5.40;;
17866;SDS011;9059;49.934;8.650;2023-06-22T07:12:35;10.48;;;6.15;;
17866;SDS011;9059;49.934;8.650;2023-06-22T07:22:38;8.52;;;5.75;;
17866;SDS011;9059;49.934;8.650;2023-06-22T07:32:42;11.13;;;6.00;;
17866;SDS011;9059;49.934;8.650;2023-06-22T07:42:45;12.50;;;5.88;;
17866;SDS011;9059;49.934;8.650;2023-06-22T07:52:51;9.43;;;6.47;;
17866;SDS011;9059;49.934;8.650;2023-06-22T08:02:54;8.05;;;5.82;;
17866;SDS011;9059;49.934;8.650;2023-06-22T08:12:58;12.85;;;6.07;;
17866;SDS011;9059;49.934;8.650;2023-06-22T08:23:01;9.65;;;6.15;;
17866;SDS011;9059;49.934;8.650;2023-06-22T08:33:08;8.07;;;5.72;;
17866;SDS011;9059;49.934;8.650;2023-06-22T08:43:17;9.18;;;5.75;;
17866;SDS011;9059;49.934;8.650;2023-06-22T08:53:21;7.32;;;5.63;;
17866;SDS011;9059;49.934;8.650;2023-06-22T09:03:24;7.57;;;5.30;;
17866;SDS011;9059;49.934;8.650;2023-06-22T09:13:30;8.30;;;5.20;;
17866;SDS011;9059;49.934;8.650;2023-06-22T09:23:33;8.68;;;5.55;;
17866;SDS011;9059;49.934;8.650;2023-06-22T09:33:37;8.73;;;5.60;;
17866;SDS011;9059;49.934;8.650;2023-06-22T09:43:41;9.35;;;5.65;;
17866;SDS011;9059;49.934;8.650;2023-06-22T09:53:46;8.50;;;5.15;;
17866;SDS011;9059;49.934;8.650;2023-06-22T10:03:48;17.58;;;5.70;;
17866;SDS011;9059;49.934;8.650;2023-06-22T10:13:53;7.80;;;5.45;;
17866;SDS011;9059;49.934;8.650;2023-06-22T10:23:56;11.00;;;5.22;;
17866;SDS011;9059;49.934;8.650;2023-06-22T10:34:00;9.20;;;5.30;;
17866;SDS011;9059;49.934;8.650;2023-06-22T10:44:03;7.32;;;5.05;;
17866;SDS011;9059;49.934;8.650;2023-06-22T10:54:08;11.07;;;5.05;;
17866;SDS011;9059;49.934;8.650;2023-06-22T11:04:11;11.02;;;4.72;;
17866;SDS011;9059;49.934;8.650;2023-06-22T11:14:15;9.23;;;4.90;;
17866;SDS011;9059;49.934;8.650;2023-06-22T11:24:18;22.10;;;6.13;;
17866;SDS011;9059;49.934;8.650;2023-06-22T11:34:22;9.55;;;5.72;;
17866;SDS011;9059;49.934;8.650;2023-06-22T11:44:26;10.35;;;5.80;;
17866;SDS011;9059;49.934;8.650;2023-06-22T11:54:30;9.05;;;5.53;;
17866;SDS011;9059;49.934;8.650;2023-06-22T12:04:33;7.40;;;4.95;;
17866;SDS011;9059;49.934;8.650;2023-06-22T12:14:37;9.00;;;5.10;;
17866;SDS011;9059;49.934;8.650;2023-06-22T12:24:40;11.35;;;5.55;;
17866;SDS011;9059;49.934;8.650;2023-06-22T12:34:44;9.38;;;5.03;;
17866;SDS011;9059;49.934;8.650;2023-06-22T12:44:47;12.45;;;5.47;;
17866;SDS011;9059;49.934;8.650;2023-06-22T12:54:51;10.35;;;5.13;;
17866;SDS011;9059;49.934;8.650;2023-06-22T13:04:56;10.70;;;5.55;;
17866;SDS011;9059;49.934;8.650;2023-06-22T13:15:00;7.22;;;5.05;;
17866;SDS011;9059;49.934;8.650;2023-06-22T13:25:04;16.52;;;5.38;;
17866;SDS011;9059;49.934;8.650;2023-06-22T13:35:10;19.67;;;4.90;;
17866;SDS011;9059;49.934;8.650;2023-06-22T13:45:12;7.82;;;4.97;;
17866;SDS011;9059;49.934;8.650;2023-06-22T13:55:19;8.27;;;3.85;;
17866;SDS011;9059;49.934;8.650;2023-06-22T14:05:22;9.25;;;3.63;;
17866;SDS011;9059;49.934;8.650;2023-06-22T14:15:26;11.10;;;3.72;;
17866;SDS011;9059;49.934;8.650;2023-06-22T14:25:29;13.65;;;3.95;;
17866;SDS011;9059;49.934;8.650;2023-06-22T14:35:34;13.23;;;3.90;;
17866;SDS011;9059;49.934;8.650;2023-06-22T14:45:36;12.70;;;3.88;;
17866;SDS011;9059;49.934;8.650;2023-06-22T14:55:41;10.18;;;3.40;;
17866;SDS011;9059;49.934;8.650;2023-06-22T15:05:45;8.15;;;3.75;;
17866;SDS011;9059;49.934;8.650;2023-06-22T15:15:50;10.82;;;3.78;;
17866;SDS011;9059;49.934;8.650;2023-06-22T15:25:53;11.75;;;3.47;;
17866;SDS011;9059;49.934;8.650;2023-06-22T15:35:57;11.52;;;3.67;;
17866;SDS011;9059;49.934;8.650;2023-06-22T15:46:04;12.80;;;3.70;;
17866;SDS011;9059;49.934;8.650;2023-06-22T15:56:09;14.50;;;4.40;;
17866;SDS011;9059;49.934;8.650;2023-06-22T16:06:12;11.43;;;4.25;;
17866;SDS011;9059;49.934;8.650;2023-06-22T16:16:16;16.67;;;3.80;;
17866;SDS011;9059;49.934;8.650;2023-06-22T16:26:19;20.00;;;2.10;;
17866;SDS011;9059;49.934;8.650;2023-06-22T16:36:23;32.25;;;3.20;;
17866;SDS011;9059;49.934;8.650;2023-06-22T16:46:26;17.23;;;1.80;;
17866;SDS011;9059;49.934;8.650;2023-06-22T16:56:30;6.25;;;1.90;;
17866;SDS011;9059;49.934;8.650;2023-06-22T17:06:33;9.33;;;2.93;;
17866;SDS011;9059;49.934;8.650;2023-06-22T17:16:37;14.48;;;2.97;;
17866;SDS011;9059;49.934;8.650;2023-06-22T17:26:47;6.55;;;3.25;;
17866;SDS011;9059;49.934;8.650;2023-06-22T17:36:52;10.68;;;3.13;;
17866;SDS011;9059;49.934;8.650;2023-06-22T17:46:55;9.32;;;3.03;;
17866;SDS011;9059;49.934;8.650;2023-06-22T17:57:00;8.85;;;2.38;;
17866;SDS011;9059;49.934;8.650;2023-06-22T18:07:03;9.05;;;2.17;;
17866;SDS011;9059;49.934;8.650;2023-06-22T18:17:08;5.07;;;2.38;;
17866;SDS011;9059;49.934;8.650;2023-06-22T18:27:11;9.20;;;2.80;;
17866;SDS011;9059;49.934;8.650;2023-06-22T18:37:15;20.90;;;7.35;;
17866;SDS011;9059;49.934;8.650;2023-06-22T18:47:25;9.82;;;2.88;;
17866;SDS011;9059;49.934;8.650;2023-06-22T18:57:30;8.60;;;2.67;;
17866;SDS011;9059;49.934;8.650;2023-06-22T19:18:02;8.75;;;2.65;;
17866;SDS011;9059;49.934;8.650;2023-06-22T19:28:16;11.50;;;2.80;;
17866;SDS011;9059;49.934;8.650;2023-06-22T19:38:20;12.15;;;2.67;;
17866;SDS011;9059;49.934;8.650;2023-06-22T19:48:24;8.85;;;2.35;;
17866;SDS011;9059;49.934;8.650;2023-06-22T19:58:30;7.35;;;2.22;;
17866;SDS011;9059;49.934;8.650;2023-06-22T20:08:41;5.47;;;1.45;;
17866;SDS011;9059;49.934;8.650;2023-06-22T20:18:46;2.10;;;0.90;;
17866;SDS011;9059;49.934;8.650;2023-06-22T20:28:49;5.68;;;0.65;;
17866;SDS011;9059;49.934;8.650;2023-06-22T20:38:53;1.20;;;0.55;;
17866;SDS011;9059;49.934;8.650;2023-06-22T20:48:56;1.80;;;0.45;;
17866;SDS011;9059;49.934;8.650;2023-06-22T20:59:01;0.20;;;0.20;;
17866;SDS011;9059;49.934;8.650;2023-06-22T21:09:04;1.67;;;0.30;;
17866;SDS011;9059;49.934;8.650;2023-06-22T21:19:08;3.30;;;0.30;;
17866;SDS011;9059;49.934;8.650;2023-06-22T21:29:11;0.40;;;0.22;;
17866;SDS011;9059;49.934;8.650;2023-06-22T21:39:17;1.95;;;0.20;;
17866;SDS011;9059;49.934;8.650;2023-06-22T21:49:20;0.47;;;0.30;;
17866;SDS011;9059;49.934;8.650;2023-06-22T21:59:24;0.50;;;0.20;;
17866;SDS011;9059;49.934;8.650;2023-06-22T22:09:26;0.32;;;0.20;;
17866;SDS011;9059;49.934;8.650;2023-06-22T22:19:32;2.70;;;0.20;;
17866;SDS011;9059;49.934;8.650;2023-06-22T22:29:34;0.20;;;0.10;;
17866;SDS011;9059;49.934;8.650;2023-06-22T22:39:39;1.08;;;0.10;;
17866;SDS011;9059;49.934;8.650;2023-06-22T22:49:42;1.08;;;0.10;;
17866;SDS011;9059;49.934;8.650;2023-06-22T22:59:46;0.90;;;0.20;;
17866;SDS011;9059;49.934;8.650;2023-06-22T23:09:49;0.80;;;0.60;;
17866;SDS011;9059;49.934;8.650;2023-06-22T23:19:53;3.55;;;0.95;;
17866;SDS011;9059;49.934;8.650;2023-06-22T23:29:56;2.80;;;1.42;;
17866;SDS011;9059;49.934;8.650;2023-06-22T23:40:03;2.92;;;1.73;;
17866;SDS011;9059;49.934;8.650;2023-06-22T23:50:08;5.13;;;2.25;;
